createdAt,value
2019-06-07T00:02:16.587Z,57.06
2019-06-07T00:04:48.949Z,57.09
2019-06-07T00:07:21.734Z,57.12
2019-06-07T00:09:53.636Z,57.12
2019-06-07T00:12:25.265Z,57.17
2019-06-07T00:14:57.006Z,57.17
2019-06-07T00:17:28.833Z,57.20
2019-06-07T00:20:01.044Z,57.24
2019-06-07T00:22:33.819Z,57.25
2019-06-07T00:25:06.204Z,57.22
2019-06-07T00:27:37.991Z,57.25
2019-06-07T00:32:44.800Z,57.35
2019-06-07T00:35:19.403Z,57.36
2019-06-07T00:37:50.629Z,57.32
2019-06-07T00:40:31.590Z,57.35
2019-06-07T00:42:55.600Z,57.39
2019-06-07T00:45:27.354Z,57.42
2019-06-07T00:47:59.006Z,57.48
2019-06-07T00:50:31.244Z,57.51
2019-06-07T00:53:29.164Z,57.56
2019-06-07T00:55:36.873Z,57.55
2019-06-07T00:58:08.651Z,57.60
2019-06-07T01:00:40.990Z,57.61
2019-06-07T01:03:12.796Z,57.63
2019-06-07T01:05:44.499Z,57.76
2019-06-07T01:08:19.955Z,57.76
2019-06-07T01:10:54.290Z,57.83
2019-06-07T01:13:26.207Z,57.91
2019-06-07T01:15:57.218Z,57.99
2019-06-07T01:18:41.045Z,58.06
2019-06-07T01:21:02.398Z,58.11
2019-06-07T01:24:04.965Z,58.14
2019-06-07T01:26:08.555Z,58.12
2019-06-07T01:28:40.867Z,58.16
2019-06-07T01:31:12.644Z,58.22
2019-06-07T01:33:51.037Z,58.27
2019-06-07T01:36:19.571Z,58.36
2019-06-07T01:38:52.408Z,58.42
2019-06-07T01:41:25.961Z,58.43
2019-06-07T01:43:57.721Z,58.44
2019-06-07T01:46:29.449Z,58.43
2019-06-07T01:49:01.244Z,58.42
2019-06-07T01:51:32.991Z,58.42
2019-06-07T01:56:38.665Z,58.47
2019-06-07T01:59:10.407Z,58.52
2019-06-07T02:01:42.233Z,58.54
2019-06-07T02:04:13.881Z,58.57
2019-06-07T02:06:45.690Z,58.58
2019-06-07T02:09:18.471Z,58.61
2019-06-07T02:11:50.213Z,58.62
2019-06-07T02:14:24.055Z,58.67
2019-06-07T02:16:55.228Z,58.66
2019-06-07T02:19:31.144Z,58.80
2019-06-07T02:22:00.361Z,58.89
2019-06-07T02:24:35.784Z,58.89
2019-06-07T02:27:06.140Z,58.96
2019-06-07T02:29:37.953Z,59.07
2019-06-07T02:32:09.620Z,59.15
2019-06-07T02:34:41.341Z,59.19
2019-06-07T02:37:12.998Z,59.27
2019-06-07T02:39:45.245Z,59.36
2019-06-07T02:42:16.980Z,59.44
2019-06-07T02:44:48.882Z,59.52
2019-06-07T02:47:20.623Z,59.52
2019-06-07T02:49:52.478Z,59.52
2019-06-07T02:52:28.726Z,59.48
2019-06-07T02:54:58.256Z,59.46
2019-06-07T02:57:36.901Z,59.46
2019-06-07T03:00:26.987Z,59.57
2019-06-07T03:02:41.180Z,59.63
2019-06-07T03:05:10.925Z,59.64
2019-06-07T03:07:45.894Z,59.67
2019-06-07T03:10:18.452Z,59.67
2019-06-07T03:12:51.190Z,59.67
2019-06-07T03:15:35.312Z,59.68
2019-06-07T03:18:08.935Z,59.69
2019-06-07T03:20:41.847Z,59.73
2019-06-07T03:23:14.245Z,59.78
2019-06-07T03:25:49.406Z,59.79
2019-06-07T03:28:21.773Z,59.76
2019-06-07T03:31:02.155Z,59.68
2019-06-07T03:33:29.233Z,59.58
2019-06-07T03:36:13.114Z,59.52
2019-06-07T03:38:35.271Z,59.46
2019-06-07T03:41:07.765Z,59.42
2019-06-07T03:43:40.747Z,59.48
2019-06-07T03:46:12.663Z,59.54
2019-06-07T03:48:44.303Z,59.62
2019-06-07T03:51:24.734Z,59.69
2019-06-07T03:53:49.402Z,59.76
2019-06-07T03:56:21.734Z,59.76
2019-06-07T03:58:53.470Z,59.79
2019-06-07T04:01:25.115Z,59.87
2019-06-07T04:03:56.728Z,59.86
2019-06-07T04:06:30.913Z,59.85
2019-06-07T04:09:01.884Z,59.85
2019-06-07T04:11:35.187Z,59.82
2019-06-07T04:14:09.162Z,59.84
2019-06-07T04:16:44.750Z,59.82
2019-06-07T04:19:15.982Z,59.83
2019-06-07T04:21:47.639Z,59.87
2019-06-07T04:24:19.264Z,59.89
2019-06-07T04:26:51.535Z,59.94
2019-06-07T04:29:34.038Z,59.96
2019-06-07T04:31:56.845Z,60.02
2019-06-07T04:34:29.315Z,59.96
2019-06-07T04:37:02.905Z,59.90
2019-06-07T04:39:40.656Z,59.85
2019-06-07T04:42:11.117Z,59.83
2019-06-07T04:44:43.243Z,59.87
2019-06-07T04:47:15.930Z,59.85
2019-06-07T04:49:51.496Z,59.83
2019-06-07T04:52:23.199Z,59.77
2019-06-07T04:54:54.841Z,59.74
2019-06-07T04:57:27.071Z,59.69
2019-06-07T05:00:22.253Z,59.58
2019-06-07T05:02:34.560Z,59.46
2019-06-07T05:05:06.057Z,59.47
2019-06-07T05:07:39.561Z,59.42
2019-06-07T05:10:11.348Z,59.39
2019-06-07T05:12:44.389Z,59.31
2019-06-07T05:15:16.379Z,59.24
2019-06-07T05:17:48.021Z,59.25
2019-06-07T05:20:19.771Z,59.26
2019-06-07T05:22:51.438Z,59.32
2019-06-07T05:25:23.108Z,59.37
2019-06-07T05:27:55.442Z,59.28
2019-06-07T05:33:14.089Z,59.32
2019-06-07T05:35:45.774Z,59.22
2019-06-07T05:38:17.450Z,59.06
2019-06-07T05:40:49.223Z,59.03
2019-06-07T05:43:29.732Z,58.92
2019-06-07T05:46:01.475Z,58.92
2019-06-07T05:48:34.167Z,58.89
2019-06-07T05:51:06.121Z,58.87
2019-06-07T05:53:39.008Z,58.89
2019-06-07T05:56:12.192Z,58.87
2019-06-07T05:58:44.811Z,58.82
2019-06-07T06:03:49.976Z,58.74
2019-06-07T06:06:21.693Z,58.78
2019-06-07T06:09:11.003Z,58.67
2019-06-07T06:11:43.320Z,58.48
2019-06-07T06:14:07.717Z,58.42
2019-06-07T06:16:34.679Z,58.36
2019-06-07T06:19:06.288Z,58.79
2019-06-07T06:21:38.510Z,59.24
2019-06-07T06:24:10.494Z,59.31
2019-06-07T06:26:49.926Z,59.34
2019-06-07T06:29:16.079Z,58.90
2019-06-07T06:32:35.540Z,58.51
2019-06-07T06:34:21.147Z,58.23
2019-06-07T06:36:52.899Z,58.25
2019-06-07T06:39:24.632Z,57.93
2019-06-07T06:42:03.145Z,57.55
2019-06-07T06:44:30.391Z,57.46
2019-06-07T06:47:02.074Z,57.13
2019-06-07T06:49:33.926Z,56.97
2019-06-07T06:52:05.708Z,57.02
2019-06-07T06:54:43.069Z,56.60
2019-06-07T06:57:19.431Z,55.72
2019-06-07T06:59:47.547Z,55.99
2019-06-07T07:02:18.420Z,56.06
2019-06-07T07:04:53.425Z,55.58
2019-06-07T07:07:24.074Z,55.35
2019-06-07T07:09:59.289Z,54.84
2019-06-07T07:12:30.144Z,54.25
2019-06-07T07:15:01.799Z,54.46
2019-06-07T07:17:50.665Z,54.78
2019-06-07T07:20:07.553Z,54.82
2019-06-07T07:22:39.543Z,55.01
2019-06-07T07:25:11.672Z,55.02
2019-06-07T07:27:44.613Z,54.59
2019-06-07T07:30:35.987Z,54.31
2019-06-07T07:32:54.118Z,54.24
2019-06-07T07:35:25.616Z,53.79
2019-06-07T07:37:59.760Z,53.15
2019-06-07T07:43:04.339Z,53.02
2019-06-07T07:45:36.000Z,52.90
2019-06-07T07:48:17.642Z,52.61
2019-06-07T07:50:41.589Z,52.50
2019-06-07T07:53:13.259Z,52.35
2019-06-07T07:55:49.494Z,52.53
2019-06-07T07:58:18.665Z,52.69
2019-06-07T08:00:56.972Z,52.42
2019-06-07T08:03:24.795Z,52.16
2019-06-07T08:05:58.968Z,51.86
2019-06-07T08:08:29.915Z,51.41
2019-06-07T08:11:02.389Z,51.12
2019-06-07T08:13:34.262Z,50.82
2019-06-07T08:16:12.498Z,50.64
2019-06-07T08:18:40.203Z,50.33
2019-06-07T08:21:24.571Z,50.25
2019-06-07T08:23:47.415Z,50.21
2019-06-07T08:26:18.738Z,50.07
2019-06-07T08:28:53.226Z,50.06
2019-06-07T08:31:23.735Z,50.00
2019-06-07T08:33:58.324Z,50.05
2019-06-07T08:36:41.345Z,50.02
2019-06-07T08:39:07.585Z,49.96
2019-06-07T08:41:36.557Z,49.95
2019-06-07T08:44:22.882Z,49.87
2019-06-07T08:46:41.860Z,49.73
2019-06-07T08:49:14.211Z,49.67
2019-06-07T08:51:45.866Z,49.63
2019-06-07T08:54:22.855Z,49.59
2019-06-07T08:56:53.687Z,49.47
2019-06-07T08:59:24.385Z,49.43
2019-06-07T09:01:59.743Z,49.22
2019-06-07T09:04:30.017Z,49.38
2019-06-07T09:07:09.109Z,49.20
2019-06-07T09:09:35.032Z,49.19
2019-06-07T09:12:10.737Z,49.12
2019-06-07T09:14:59.027Z,49.08
2019-06-07T09:17:13.523Z,49.12
2019-06-07T09:19:45.601Z,48.93
2019-06-07T09:22:17.243Z,48.86
2019-06-07T09:24:48.880Z,48.71
2019-06-07T09:27:20.536Z,48.68
2019-06-07T09:29:52.874Z,48.69
2019-06-07T09:32:24.493Z,48.27
2019-06-07T09:35:02.458Z,48.21
2019-06-07T09:40:19.632Z,48.16
2019-06-07T09:42:37.260Z,47.89
2019-06-07T09:45:13.763Z,47.78
2019-06-07T09:47:43.205Z,47.58
2019-06-07T09:50:15.672Z,47.58
2019-06-07T09:52:58.585Z,47.48
2019-06-07T09:55:24.777Z,47.47
2019-06-07T09:57:54.240Z,47.39
2019-06-07T10:00:40.802Z,47.31
2019-06-07T10:03:07.925Z,46.95
2019-06-07T10:05:34.199Z,47.00
2019-06-07T10:08:40.796Z,46.90
2019-06-07T10:10:42.654Z,46.84
2019-06-07T10:13:13.037Z,46.63
2019-06-07T10:15:44.701Z,46.62
2019-06-07T10:18:16.407Z,46.69
2019-06-07T10:20:49.069Z,46.60
2019-06-07T10:23:20.961Z,46.64
2019-06-07T10:25:52.648Z,46.67
2019-06-07T10:28:24.449Z,46.63
2019-06-07T10:30:56.200Z,46.41
2019-06-07T10:33:27.881Z,46.44
2019-06-07T10:36:00.356Z,46.35
2019-06-07T10:38:32.983Z,46.43
2019-06-07T10:41:04.814Z,46.37
2019-06-07T10:43:36.441Z,46.11
2019-06-07T10:46:09.911Z,46.04
2019-06-07T10:48:42.012Z,45.95
2019-06-07T10:51:14.837Z,45.85
2019-06-07T10:53:47.086Z,45.76
2019-06-07T10:56:18.805Z,45.62
2019-06-07T10:58:50.467Z,45.63
2019-06-07T11:01:22.394Z,45.61
2019-06-07T11:03:55.673Z,45.44
2019-06-07T11:06:27.446Z,45.36
2019-06-07T11:08:59.714Z,45.19
2019-06-07T11:11:32.853Z,45.23
2019-06-07T11:14:06.424Z,45.04
2019-06-07T11:16:38.226Z,44.90
2019-06-07T11:19:13.686Z,44.73
2019-06-07T11:21:43.524Z,44.71
2019-06-07T11:24:18.655Z,44.58
2019-06-07T11:26:48.732Z,44.50
2019-06-07T11:29:21.435Z,44.47
2019-06-07T11:31:53.111Z,44.33
2019-06-07T11:34:25.345Z,44.18
2019-06-07T11:36:57.254Z,44.09
2019-06-07T11:39:28.950Z,44.07
2019-06-07T11:42:01.211Z,43.82
2019-06-07T11:44:33.594Z,43.86
2019-06-07T11:47:06.410Z,43.75
2019-06-07T11:49:38.640Z,43.70
2019-06-07T11:52:11.411Z,43.63
2019-06-07T11:54:43.093Z,43.60
2019-06-07T11:57:15.268Z,43.52
2019-06-07T11:59:47.623Z,43.44
2019-06-07T12:02:19.590Z,43.48
2019-06-07T12:04:51.270Z,43.32
2019-06-07T12:07:22.936Z,43.25
2019-06-07T12:09:56.743Z,43.16
2019-06-07T12:12:28.628Z,43.09
2019-06-07T12:15:00.994Z,43.18
2019-06-07T12:17:32.683Z,43.25
2019-06-07T12:20:08.593Z,43.18
2019-06-07T12:22:39.956Z,43.19
2019-06-07T12:25:16.121Z,43.03
2019-06-07T12:27:47.175Z,42.97
2019-06-07T12:30:27.720Z,42.91
2019-06-07T12:32:56.205Z,42.81
2019-06-07T12:35:28.401Z,42.85
2019-06-07T12:38:00.349Z,42.83
2019-06-07T12:40:32.583Z,42.91
2019-06-07T12:43:04.470Z,42.84
2019-06-07T12:45:44.885Z,42.77
2019-06-07T12:48:10.133Z,42.75
2019-06-07T12:50:43.563Z,42.78
2019-06-07T12:53:15.660Z,42.68
2019-06-07T12:55:47.492Z,42.53
2019-06-07T12:58:27.178Z,42.41
2019-06-07T13:00:53.302Z,42.34
2019-06-07T13:03:25.061Z,42.35
2019-06-07T13:05:56.870Z,42.27
2019-06-07T13:08:28.551Z,42.21
2019-06-07T13:11:13.949Z,42.01
2019-06-07T13:13:33.696Z,41.99
2019-06-07T13:16:06.005Z,41.89
2019-06-07T13:18:37.675Z,41.85
2019-06-07T13:21:09.419Z,41.85
2019-06-07T13:23:44.232Z,41.62
2019-06-07T13:26:14.544Z,41.60
2019-06-07T13:28:46.223Z,41.51
2019-06-07T13:31:18.852Z,41.39
2019-06-07T13:33:50.723Z,41.35
2019-06-07T13:36:22.558Z,41.34
2019-06-07T13:38:54.256Z,41.29
2019-06-07T13:41:36.303Z,41.26
2019-06-07T13:43:59.702Z,41.30
2019-06-07T13:46:32.142Z,41.12
2019-06-07T13:49:03.998Z,41.00
2019-06-07T13:51:36.459Z,41.04
2019-06-07T13:54:08.233Z,40.96
2019-06-07T13:57:00.719Z,40.95
2019-06-07T13:59:13.269Z,40.90
2019-06-07T14:01:45.112Z,40.77
2019-06-07T14:04:18.804Z,40.66
2019-06-07T14:06:50.689Z,40.57
2019-06-07T14:09:23.285Z,40.31
2019-06-07T14:11:55.162Z,40.33
2019-06-07T14:14:27.518Z,40.26
2019-06-07T14:17:00.295Z,40.27
2019-06-07T14:19:32.763Z,40.10
2019-06-07T14:22:04.640Z,40.03
2019-06-07T14:24:36.380Z,39.94
2019-06-07T14:27:08.174Z,39.72
2019-06-07T14:29:40.290Z,39.70
2019-06-07T14:32:11.967Z,39.57
2019-06-07T14:34:44.298Z,39.44
2019-06-07T14:37:16.015Z,39.34
2019-06-07T14:39:47.726Z,39.20
2019-06-07T14:42:19.423Z,39.28
2019-06-07T14:44:51.129Z,39.26
2019-06-07T14:47:23.777Z,39.31
2019-06-07T14:49:56.215Z,39.07
2019-06-07T14:52:28.467Z,38.92
2019-06-07T14:55:00.184Z,38.78
2019-06-07T14:57:33.359Z,38.59
2019-06-07T15:00:11.328Z,38.35
2019-06-07T15:02:40.541Z,38.26
2019-06-07T15:05:13.065Z,38.15
2019-06-07T15:07:44.830Z,37.80
2019-06-07T15:10:16.670Z,37.68
2019-06-07T15:12:48.333Z,37.65
2019-06-07T15:15:20.228Z,37.62
2019-06-07T15:17:51.963Z,37.71
2019-06-07T15:20:24.382Z,37.59
2019-06-07T15:22:56.079Z,37.50
2019-06-07T15:25:29.076Z,37.42
2019-06-07T15:28:00.899Z,37.30
2019-06-07T15:30:33.670Z,37.19
2019-06-07T15:33:05.666Z,37.18
2019-06-07T15:35:39.102Z,37.14
2019-06-07T15:38:10.884Z,37.15
2019-06-07T15:40:42.596Z,37.40
2019-06-07T15:43:14.333Z,37.66
2019-06-07T15:45:46.898Z,37.92
2019-06-07T15:48:18.660Z,38.21
2019-06-07T15:50:51.105Z,38.47
2019-06-07T15:53:22.788Z,38.64
2019-06-07T15:55:54.535Z,38.83
2019-06-07T15:58:26.394Z,39.08
2019-06-07T16:00:58.098Z,39.39
2019-06-07T16:03:31.392Z,39.67
2019-06-07T16:06:03.899Z,39.88
2019-06-07T16:08:36.323Z,40.15
2019-06-07T16:11:08.221Z,40.66
2019-06-07T16:13:40.810Z,41.28
2019-06-07T16:16:12.624Z,41.93
2019-06-07T16:18:44.356Z,42.44
2019-06-07T16:21:16.705Z,42.83
2019-06-07T16:23:48.534Z,43.15
2019-06-07T16:26:20.317Z,43.46
2019-06-07T16:28:52.164Z,43.62
2019-06-07T16:31:23.827Z,43.74
2019-06-07T16:33:55.662Z,43.96
2019-06-07T16:36:27.357Z,44.04
2019-06-07T16:38:59.337Z,44.04
2019-06-07T16:41:31.785Z,44.01
2019-06-07T16:44:03.523Z,44.00
2019-06-07T16:46:36.732Z,43.98
2019-06-07T16:49:08.666Z,44.14
2019-06-07T16:51:41.293Z,44.22
2019-06-07T16:54:13.526Z,44.57
2019-06-07T16:56:48.076Z,44.06
2019-06-07T16:59:18.685Z,43.62
2019-06-07T17:01:50.374Z,43.28
2019-06-07T17:04:22.049Z,42.96
2019-06-07T17:06:53.971Z,42.78
2019-06-07T17:09:26.029Z,42.78
2019-06-07T17:11:57.694Z,42.70
2019-06-07T17:14:29.407Z,42.79
2019-06-07T17:17:01.042Z,42.78
2019-06-07T17:19:32.721Z,42.43
2019-06-07T17:22:04.640Z,42.20
2019-06-07T17:24:37.062Z,41.95
2019-06-07T17:27:08.747Z,41.62
2019-06-07T17:29:41.880Z,41.33
2019-06-07T17:32:15.977Z,41.13
2019-06-07T17:34:48.172Z,40.91
2019-06-07T17:37:20.119Z,40.84
2019-06-07T17:39:52.378Z,40.74
2019-06-07T17:42:24.120Z,40.72
2019-06-07T17:44:55.865Z,40.59
2019-06-07T17:47:27.687Z,40.70
2019-06-07T17:49:59.414Z,40.86
2019-06-07T17:52:31.431Z,40.83
2019-06-07T17:55:04.084Z,40.56
2019-06-07T17:57:35.817Z,40.23
2019-06-07T18:00:27.716Z,40.05
2019-06-07T18:02:44.796Z,40.06
2019-06-07T18:05:16.677Z,40.19
2019-06-07T18:07:51.805Z,40.13
2019-06-07T18:15:44.356Z,39.92
2019-06-07T18:18:16.263Z,40.05
2019-06-07T18:20:49.218Z,39.81
2019-06-07T18:23:21.117Z,40.13
2019-06-07T18:25:52.910Z,40.34
2019-06-07T18:28:25.126Z,40.60
2019-06-07T18:30:57.056Z,40.93
2019-06-07T18:33:28.933Z,41.21
2019-06-07T18:36:00.830Z,41.37
2019-06-07T18:38:32.688Z,41.63
2019-06-07T18:41:04.526Z,41.71
2019-06-07T18:43:36.234Z,41.67
2019-06-07T18:46:07.984Z,41.69
2019-06-07T18:48:39.799Z,41.72
2019-06-07T18:51:11.624Z,41.76
2019-06-07T18:53:43.401Z,41.95
2019-06-07T18:56:15.206Z,41.97
2019-06-07T18:58:47.255Z,42.01
2019-06-07T19:01:19.066Z,41.98
2019-06-07T19:03:52.102Z,41.89
2019-06-07T19:06:23.947Z,41.87
2019-06-07T19:08:57.958Z,41.80
2019-06-07T19:11:29.402Z,41.70
2019-06-07T19:14:01.388Z,41.65
2019-06-07T19:16:33.268Z,41.46
2019-06-07T19:19:05.535Z,41.39
2019-06-07T19:21:39.088Z,41.29
2019-06-07T19:24:10.883Z,41.27
2019-06-07T19:26:42.564Z,41.30
2019-06-07T19:29:14.322Z,41.29
2019-06-07T19:31:46.016Z,41.36
2019-06-07T19:34:18.727Z,41.62
2019-06-07T19:36:51.478Z,41.71
2019-06-07T19:39:23.303Z,41.63
2019-06-07T19:41:55.911Z,41.60
2019-06-07T19:44:28.074Z,41.56
2019-06-07T19:47:00.606Z,41.54
2019-06-07T19:49:32.910Z,41.53
2019-06-07T19:52:04.724Z,41.50
2019-06-07T19:54:36.541Z,41.51
2019-06-07T19:57:08.570Z,41.55
2019-06-07T19:59:40.280Z,41.59
2019-06-07T20:02:12.612Z,41.58
2019-06-07T20:04:45.038Z,41.61
2019-06-07T20:07:16.906Z,41.65
2019-06-07T20:09:48.667Z,41.61
2019-06-07T20:12:20.485Z,41.64
2019-06-07T20:14:55.371Z,41.73
2019-06-07T20:17:25.637Z,41.90
2019-06-07T20:19:58.277Z,42.11
2019-06-07T20:22:30.061Z,42.26
2019-06-07T20:25:03.092Z,42.29
2019-06-07T20:27:34.982Z,42.38
2019-06-07T20:30:08.590Z,42.49
2019-06-07T20:32:40.405Z,42.64
2019-06-07T20:35:12.870Z,42.86
2019-06-07T20:37:44.561Z,43.15
2019-06-07T20:40:24.651Z,43.27
2019-06-07T20:42:50.166Z,43.44
2019-06-07T20:45:33.233Z,43.55
2019-06-07T20:47:55.286Z,43.66
2019-06-07T20:50:27.668Z,43.71
2019-06-07T20:53:01.221Z,43.86
2019-06-07T20:55:34.522Z,43.99
2019-06-07T20:58:07.282Z,44.04
2019-06-07T21:00:39.448Z,44.10
2019-06-07T21:03:11.173Z,44.12
2019-06-07T21:05:43.329Z,44.00
2019-06-07T21:08:15.063Z,43.95
2019-06-07T21:10:47.061Z,44.00
2019-06-07T21:13:18.743Z,43.95
2019-06-07T21:15:50.560Z,43.98
2019-06-07T21:18:22.492Z,44.00
2019-06-07T21:20:54.523Z,43.94
2019-06-07T21:23:26.292Z,43.92
2019-06-07T21:25:58.082Z,43.97
2019-06-07T21:28:29.872Z,43.90
2019-06-07T21:31:03.406Z,43.95
2019-06-07T21:33:35.250Z,43.87
2019-06-07T21:36:07.834Z,43.89
2019-06-07T21:38:39.722Z,43.87
2019-06-07T21:41:12.628Z,43.77
2019-06-07T21:43:44.432Z,43.84
2019-06-07T21:46:20.466Z,43.99
2019-06-07T21:48:49.512Z,43.96
2019-06-07T21:51:21.420Z,43.99
2019-06-07T21:53:53.753Z,44.02
2019-06-07T21:56:25.862Z,44.06
2019-06-07T21:58:57.527Z,44.06
2019-06-07T22:01:30.891Z,44.11
2019-06-07T22:04:03.516Z,44.13
2019-06-07T22:06:35.307Z,44.17
2019-06-07T22:09:10.087Z,44.24
2019-06-07T22:11:41.788Z,44.29
2019-06-07T22:14:14.535Z,44.31
2019-06-07T22:16:46.395Z,44.27
2019-06-07T22:19:18.171Z,44.29
2019-06-07T22:22:02.129Z,44.33
2019-06-07T22:24:24.007Z,44.31
2019-06-07T22:26:55.721Z,44.31
2019-06-07T22:29:27.360Z,44.30
2019-06-07T22:31:59.075Z,44.26
2019-06-07T22:34:30.842Z,44.27
2019-06-07T22:37:02.610Z,44.28
2019-06-07T22:39:35.019Z,44.37
2019-06-07T22:42:06.770Z,44.46
2019-06-07T22:44:40.137Z,44.51
2019-06-07T22:47:12.105Z,44.59
2019-06-07T22:49:43.781Z,44.62
2019-06-07T22:52:16.869Z,44.61
2019-06-07T22:54:49.523Z,44.62
2019-06-07T22:57:24.811Z,44.58
2019-06-07T22:59:56.532Z,44.52
2019-06-07T23:02:28.328Z,44.43
2019-06-07T23:05:04.454Z,44.33
2019-06-07T23:07:33.718Z,44.27
2019-06-07T23:10:06.791Z,44.16
2019-06-07T23:12:38.442Z,44.04
2019-06-07T23:15:11.490Z,43.97
2019-06-07T23:17:43.241Z,43.86
2019-06-07T23:20:15.926Z,43.73
2019-06-07T23:22:47.604Z,43.64
2019-06-07T23:25:24.224Z,43.52
2019-06-07T23:27:53.636Z,43.44
2019-06-07T23:30:26.209Z,43.33
2019-06-07T23:32:58.967Z,43.25
2019-06-07T23:35:30.700Z,43.13
2019-06-07T23:38:02.474Z,43.01
2019-06-07T23:40:34.735Z,42.95
2019-06-07T23:43:06.470Z,42.86
2019-06-07T23:45:38.808Z,42.79
2019-06-07T23:48:11.247Z,42.77
2019-06-07T23:50:42.922Z,42.74
2019-06-07T23:53:15.637Z,42.71
2019-06-07T23:55:47.857Z,42.67
2019-06-07T23:58:20.586Z,42.63
